createdAt,value
2023-03-25T00:01:25.771Z,10.59
2023-03-25T00:03:53.820Z,10.55
2023-03-25T00:06:21.393Z,10.52
2023-03-25T00:08:48.778Z,10.50
2023-03-25T00:11:16.647Z,10.49
2023-03-25T00:13:44.684Z,10.46
2023-03-25T00:16:12.496Z,10.45
2023-03-25T00:18:40.237Z,10.44
2023-03-25T00:21:10.944Z,10.44
2023-03-25T00:23:38.935Z,10.43
2023-03-25T00:26:06.720Z,10.41
2023-03-25T00:28:35.917Z,10.39
2023-03-25T00:31:04.502Z,10.34
2023-03-25T00:33:33.562Z,10.33
2023-03-25T00:36:00.782Z,10.31
2023-03-25T00:38:33.533Z,10.28
2023-03-25T00:41:07.231Z,10.26
2023-03-25T00:43:34.302Z,10.24
2023-03-25T00:46:01.823Z,10.21
2023-03-25T00:48:29.882Z,10.17
2023-03-25T00:50:57.054Z,10.14
2023-03-25T00:53:24.293Z,10.11
2023-03-25T00:55:51.665Z,10.08
2023-03-25T00:58:18.883Z,10.04
2023-03-25T01:00:48.303Z,10.00
2023-03-25T01:03:15.645Z,9.98
2023-03-25T01:05:42.820Z,9.96
2023-03-25T01:08:10.576Z,9.94
2023-03-25T01:10:39.268Z,9.91
2023-03-25T01:13:06.409Z,9.89
2023-03-25T01:15:33.714Z,9.85
2023-03-25T01:18:01.119Z,9.81
2023-03-25T01:20:28.153Z,9.77
2023-03-25T01:22:55.428Z,9.72
2023-03-25T01:25:22.696Z,9.67
2023-03-25T01:27:49.665Z,9.62
2023-03-25T01:30:19.613Z,9.58
2023-03-25T01:32:46.835Z,9.54
2023-03-25T01:35:14.127Z,9.49
2023-03-25T01:37:44.257Z,9.45
2023-03-25T01:40:18.626Z,9.41
2023-03-25T01:42:46.635Z,9.36
2023-03-25T01:45:27.005Z,9.32
2023-03-25T01:48:01.351Z,9.27
2023-03-25T01:50:29.494Z,9.21
2023-03-25T01:52:58.343Z,9.18
2023-03-25T01:55:27.621Z,9.15
2023-03-25T01:57:59.813Z,9.10
2023-03-25T02:00:28.200Z,9.05
2023-03-25T02:02:59.014Z,9.01
2023-03-25T02:05:33.372Z,8.98
2023-03-25T02:08:03.367Z,8.93
2023-03-25T02:10:30.757Z,8.90
2023-03-25T02:12:58.090Z,8.87
2023-03-25T02:15:25.538Z,8.83
2023-03-25T02:18:11.968Z,8.78
2023-03-25T02:21:03.272Z,8.73
2023-03-25T02:23:59.252Z,8.69
2023-03-25T02:26:59.913Z,8.66
2023-03-25T02:29:38.342Z,8.60
2023-03-25T02:32:20.085Z,8.55
2023-03-25T02:35:08.284Z,8.53
2023-03-25T02:38:21.835Z,8.47
2023-03-25T02:40:55.809Z,8.43
2023-03-25T02:43:33.069Z,8.41
2023-03-25T02:46:04.913Z,8.37
2023-03-25T02:48:37.078Z,8.33
2023-03-25T02:51:12.389Z,8.30
2023-03-25T02:53:42.778Z,8.29
2023-03-25T02:56:17.033Z,8.28
2023-03-25T02:58:46.093Z,8.26
2023-03-25T03:01:15.029Z,8.24
2023-03-25T03:03:42.712Z,8.24
2023-03-25T03:06:21.653Z,8.22
2023-03-25T03:09:09.342Z,8.20
2023-03-25T03:11:47.496Z,8.18
2023-03-25T03:14:38.680Z,8.16
2023-03-25T03:17:14.052Z,8.14
2023-03-25T03:19:47.480Z,8.13
2023-03-25T03:22:44.259Z,8.11
2023-03-25T03:25:22.076Z,8.11
2023-03-25T03:28:07.100Z,8.11
2023-03-25T03:30:39.776Z,8.08
2023-03-25T03:33:13.540Z,8.06
2023-03-25T03:35:50.403Z,8.04
2023-03-25T03:38:24.056Z,8.01
2023-03-25T03:40:57.353Z,7.98
2023-03-25T03:43:28.143Z,7.95
2023-03-25T03:46:00.647Z,7.94
2023-03-25T03:48:32.048Z,7.93
2023-03-25T03:51:03.255Z,7.91
2023-03-25T03:53:35.223Z,7.90
2023-03-25T03:56:07.366Z,7.87
2023-03-25T03:58:38.112Z,7.86
2023-03-25T04:01:12.796Z,7.84
2023-03-25T04:03:48.736Z,7.85
2023-03-25T04:06:24.813Z,7.82
2023-03-25T04:08:59.927Z,7.79
2023-03-25T04:11:32.639Z,7.79
2023-03-25T04:14:03.888Z,7.77
2023-03-25T04:16:34.711Z,7.75
2023-03-25T04:19:04.197Z,7.75
2023-03-25T04:21:31.271Z,7.74
2023-03-25T04:24:01.357Z,7.72
2023-03-25T04:26:34.213Z,7.72
2023-03-25T04:29:09.569Z,7.73
2023-03-25T04:31:37.896Z,7.72
2023-03-25T04:34:05.640Z,7.73
2023-03-25T04:36:33.767Z,7.73
2023-03-25T04:39:01.403Z,7.74
2023-03-25T04:41:28.845Z,7.76
2023-03-25T04:43:56.386Z,7.77
2023-03-25T04:46:23.951Z,7.79
2023-03-25T04:48:51.108Z,7.82
2023-03-25T04:51:18.461Z,7.85
2023-03-25T04:53:45.933Z,7.88
2023-03-25T04:56:17.207Z,7.90
2023-03-25T04:58:44.762Z,7.96
2023-03-25T05:01:18.033Z,8.05
2023-03-25T05:03:45.127Z,8.19
2023-03-25T05:06:12.443Z,8.38
2023-03-25T05:08:39.665Z,8.56
2023-03-25T05:11:07.369Z,8.73
2023-03-25T05:13:34.574Z,8.78
2023-03-25T05:16:01.929Z,8.80
2023-03-25T05:18:29.096Z,8.78
2023-03-25T05:20:56.913Z,8.75
2023-03-25T05:23:24.916Z,8.76
2023-03-25T05:25:53.803Z,8.77
2023-03-25T05:28:21.537Z,8.76
2023-03-25T05:30:49.614Z,8.76
2023-03-25T05:33:19.040Z,8.76
2023-03-25T05:35:49.822Z,8.75
2023-03-25T05:38:19.099Z,8.74
2023-03-25T05:40:47.638Z,8.72
2023-03-25T05:43:15.981Z,8.73
2023-03-25T05:45:43.342Z,8.73
2023-03-25T05:48:11.199Z,8.76
2023-03-25T05:50:42.956Z,8.80
2023-03-25T05:53:11.480Z,8.83
2023-03-25T05:55:38.779Z,8.86
2023-03-25T05:58:07.014Z,8.90
2023-03-25T06:00:34.995Z,8.92
2023-03-25T06:03:04.574Z,8.94
2023-03-25T06:05:31.738Z,8.97
2023-03-25T06:07:58.780Z,8.98
2023-03-25T06:10:26.330Z,9.00
2023-03-25T06:12:54.409Z,9.02
2023-03-25T06:15:29.361Z,9.07
2023-03-25T06:17:57.231Z,9.15
2023-03-25T06:20:26.344Z,9.21
2023-03-25T06:22:53.549Z,9.29
2023-03-25T06:25:21.861Z,9.36
2023-03-25T06:27:50.450Z,9.46
2023-03-25T06:30:20.537Z,9.57
2023-03-25T06:32:50.817Z,9.70
2023-03-25T06:35:20.629Z,9.88
2023-03-25T06:37:48.480Z,10.11
2023-03-25T06:40:22.511Z,10.47
2023-03-25T06:42:50.067Z,10.81
2023-03-25T06:45:40.030Z,11.04
2023-03-25T06:48:22.859Z,11.21
2023-03-25T06:50:53.464Z,11.33
2023-03-25T06:53:22.967Z,11.36
2023-03-25T06:55:50.502Z,11.40
2023-03-25T06:58:17.857Z,11.50
2023-03-25T07:00:46.041Z,11.64
2023-03-25T07:03:13.794Z,11.68
2023-03-25T07:05:45.341Z,11.72
2023-03-25T07:08:13.314Z,11.81
2023-03-25T07:10:40.611Z,11.81
2023-03-25T07:13:09.855Z,11.83
2023-03-25T07:15:37.565Z,11.94
2023-03-25T07:18:10.178Z,12.30
2023-03-25T07:20:37.746Z,12.65
2023-03-25T07:23:04.849Z,12.98
2023-03-25T07:25:31.927Z,13.57
2023-03-25T07:27:58.952Z,14.79
2023-03-25T07:30:26.085Z,16.12
2023-03-25T07:32:54.700Z,16.98
2023-03-25T07:35:22.079Z,17.50
2023-03-25T07:37:49.212Z,18.29
2023-03-25T07:40:18.202Z,19.07
2023-03-25T07:42:46.602Z,19.69
2023-03-25T07:45:21.864Z,20.29
2023-03-25T07:47:51.343Z,19.96
2023-03-25T07:50:19.305Z,20.05
2023-03-25T07:52:46.799Z,20.21
2023-03-25T07:55:14.577Z,20.64
2023-03-25T07:57:42.171Z,21.75
2023-03-25T08:00:12.888Z,22.45
2023-03-25T08:02:41.889Z,22.46
2023-03-25T08:05:10.024Z,22.11
2023-03-25T08:07:37.742Z,21.97
2023-03-25T08:10:04.988Z,22.40
2023-03-25T08:12:32.144Z,22.99
2023-03-25T08:15:00.184Z,23.90
2023-03-25T08:17:27.308Z,24.59
2023-03-25T08:19:54.676Z,25.37
2023-03-25T08:22:21.858Z,26.00
2023-03-25T08:24:49.409Z,26.68
2023-03-25T08:27:16.888Z,27.41
2023-03-25T08:29:44.104Z,28.15
2023-03-25T08:32:11.797Z,28.49
2023-03-25T08:34:40.261Z,28.69
2023-03-25T08:37:08.662Z,29.00
2023-03-25T08:39:39.842Z,28.98
2023-03-25T08:42:07.500Z,29.14
2023-03-25T08:44:34.585Z,29.32
2023-03-25T08:47:01.916Z,29.50
2023-03-25T08:49:29.051Z,29.76
2023-03-25T08:51:58.207Z,29.92
2023-03-25T08:54:26.203Z,30.11
2023-03-25T08:56:53.435Z,30.30
2023-03-25T08:59:20.806Z,30.56
2023-03-25T09:01:49.482Z,30.64
2023-03-25T09:04:16.896Z,30.87
2023-03-25T09:06:47.740Z,30.76
2023-03-25T09:09:15.854Z,30.65
2023-03-25T09:11:43.134Z,30.02
2023-03-25T09:14:10.506Z,29.12
2023-03-25T09:16:37.627Z,28.59
2023-03-25T09:19:05.019Z,28.30
2023-03-25T09:21:32.131Z,27.38
2023-03-25T09:23:59.782Z,26.39
2023-03-25T09:26:27.278Z,25.62
2023-03-25T09:28:55.639Z,24.87
2023-03-25T09:31:22.808Z,24.13
2023-03-25T09:33:49.915Z,23.52
2023-03-25T09:36:16.960Z,22.93
2023-03-25T09:38:44.243Z,22.35
2023-03-25T09:41:31.296Z,21.76
2023-03-25T09:44:09.502Z,21.13
2023-03-25T09:46:38.038Z,20.65
2023-03-25T09:49:06.087Z,20.39
2023-03-25T09:51:37.181Z,20.10
2023-03-25T09:54:16.416Z,19.77
2023-03-25T09:56:45.422Z,19.47
2023-03-25T09:59:19.173Z,19.27
2023-03-25T10:01:55.286Z,19.14
2023-03-25T10:04:47.855Z,19.00
2023-03-25T10:07:30.815Z,19.02
2023-03-25T10:10:05.070Z,19.02
2023-03-25T10:12:43.635Z,19.20
2023-03-25T10:15:27.441Z,19.26
2023-03-25T10:18:17.084Z,19.47
2023-03-25T10:20:55.805Z,19.75
2023-03-25T10:23:29.181Z,20.01
2023-03-25T10:26:02.172Z,20.63
2023-03-25T10:28:34.378Z,21.28
2023-03-25T10:31:03.377Z,21.58
2023-03-25T10:33:34.472Z,22.06
2023-03-25T10:36:03.434Z,22.70
2023-03-25T10:38:34.556Z,23.10
2023-03-25T10:41:12.841Z,23.49
2023-03-25T10:43:43.343Z,23.77
2023-03-25T10:46:19.806Z,23.67
2023-03-25T10:48:48.334Z,23.42
2023-03-25T10:51:18.096Z,23.41
2023-03-25T10:53:49.806Z,23.57
2023-03-25T10:56:19.002Z,23.56
2023-03-25T10:58:49.648Z,23.59
2023-03-25T11:01:19.575Z,23.63
2023-03-25T11:03:48.178Z,23.59
2023-03-25T11:06:25.564Z,23.18
2023-03-25T11:09:15.497Z,22.58
2023-03-25T11:11:44.744Z,22.00
2023-03-25T11:14:13.564Z,21.69
2023-03-25T11:16:45.211Z,21.41
2023-03-25T11:19:20.770Z,21.06
2023-03-25T11:21:49.958Z,20.90
2023-03-25T11:24:19.214Z,20.94
2023-03-25T11:26:52.555Z,20.85
2023-03-25T11:29:23.008Z,20.99
2023-03-25T11:31:59.364Z,21.03
2023-03-25T11:34:26.577Z,21.17
2023-03-25T11:37:00.871Z,21.38
2023-03-25T11:39:35.837Z,21.69
2023-03-25T11:42:15.948Z,21.89
2023-03-25T11:44:43.282Z,21.98
2023-03-25T11:47:12.807Z,21.82
2023-03-25T11:49:42.473Z,21.42
2023-03-25T11:52:14.645Z,21.02
2023-03-25T11:54:43.671Z,20.72
2023-03-25T11:57:17.515Z,20.46
2023-03-25T11:59:48.934Z,20.34
2023-03-25T12:02:25.517Z,20.14
2023-03-25T12:05:03.341Z,19.74
2023-03-25T12:07:31.578Z,19.40
2023-03-25T12:10:05.548Z,19.13
2023-03-25T12:12:48.842Z,18.95
2023-03-25T12:15:25.019Z,18.83
2023-03-25T12:18:02.885Z,18.67
2023-03-25T12:20:35.220Z,18.49
2023-03-25T12:23:11.920Z,18.52
2023-03-25T12:25:54.829Z,18.69
2023-03-25T12:29:02.801Z,18.70
2023-03-25T12:31:43.096Z,18.56
2023-03-25T12:34:20.320Z,18.38
2023-03-25T12:37:00.178Z,18.25
2023-03-25T12:39:51.324Z,18.02
2023-03-25T12:42:30.734Z,17.82
2023-03-25T12:45:15.494Z,17.65
2023-03-25T12:47:47.924Z,17.44
2023-03-25T12:50:32.302Z,17.25
2023-03-25T12:53:05.330Z,17.02
2023-03-25T12:55:45.512Z,16.83
2023-03-25T12:58:32.481Z,16.51
2023-03-25T13:01:08.559Z,16.09
2023-03-25T13:04:09.876Z,15.78
2023-03-25T13:06:44.920Z,15.43
2023-03-25T13:09:21.519Z,15.02
2023-03-25T13:11:52.358Z,14.70
2023-03-25T13:14:24.594Z,14.49
2023-03-25T13:16:56.936Z,14.37
2023-03-25T13:19:28.293Z,14.30
2023-03-25T13:22:00.734Z,14.21
2023-03-25T13:24:37.020Z,14.18
2023-03-25T13:27:06.339Z,14.13
2023-03-25T13:29:38.363Z,14.09
2023-03-25T13:32:10.712Z,14.06
2023-03-25T13:34:45.711Z,14.02
2023-03-25T13:37:20.098Z,13.98
2023-03-25T13:39:59.206Z,13.94
2023-03-25T13:42:32.997Z,13.92
2023-03-25T13:45:03.850Z,13.98
2023-03-25T13:47:35.882Z,13.99
2023-03-25T13:50:08.614Z,13.99
2023-03-25T13:52:40.966Z,13.98
2023-03-25T13:55:16.396Z,14.00
2023-03-25T13:58:19.811Z,14.04
2023-03-25T14:01:04.511Z,14.08
2023-03-25T14:03:59.856Z,14.04
2023-03-25T14:06:54.076Z,14.06
2023-03-25T14:10:02.399Z,14.05
2023-03-25T14:12:33.633Z,14.02
2023-03-25T14:15:09.286Z,14.09
2023-03-25T14:17:39.780Z,14.24
2023-03-25T14:20:12.666Z,14.41
2023-03-25T14:22:44.108Z,14.60
2023-03-25T14:25:28.491Z,14.74
2023-03-25T14:27:55.881Z,14.84
2023-03-25T14:30:25.930Z,14.90
2023-03-25T14:32:56.103Z,14.91
2023-03-25T14:35:51.603Z,14.92
2023-03-25T14:38:55.405Z,14.87
2023-03-25T14:41:53.102Z,14.75
2023-03-25T14:44:22.903Z,14.62
2023-03-25T14:46:50.539Z,14.49
2023-03-25T14:49:30.311Z,14.39
2023-03-25T14:51:59.726Z,14.29
2023-03-25T14:54:34.853Z,14.15
2023-03-25T14:57:09.292Z,13.87
2023-03-25T14:59:41.544Z,13.57
2023-03-25T15:02:18.068Z,13.21
2023-03-25T15:04:47.524Z,12.84
2023-03-25T15:07:20.097Z,12.47
2023-03-25T15:09:56.149Z,12.16
2023-03-25T15:12:27.518Z,11.91
2023-03-25T15:15:08.478Z,11.65
2023-03-25T15:17:49.307Z,11.41
2023-03-25T15:20:37.155Z,11.21
2023-03-25T15:23:33.115Z,11.03
2023-03-25T15:26:02.265Z,10.89
2023-03-25T15:28:45.326Z,10.79
2023-03-25T15:31:25.053Z,10.68
2023-03-25T15:34:07.169Z,10.60
2023-03-25T15:36:47.223Z,10.57
2023-03-25T15:39:32.714Z,10.51
2023-03-25T15:42:14.425Z,10.43
2023-03-25T15:45:00.625Z,10.40
2023-03-25T15:47:55.211Z,10.32
2023-03-25T15:50:32.536Z,10.22
2023-03-25T15:53:39.471Z,10.14
2023-03-25T15:56:13.573Z,10.03
2023-03-25T15:58:48.528Z,9.95
2023-03-25T16:01:26.049Z,9.93
2023-03-25T16:04:01.388Z,9.96
2023-03-25T16:06:29.927Z,9.98
2023-03-25T16:09:09.367Z,9.98
2023-03-25T16:11:37.638Z,9.97
2023-03-25T16:14:09.480Z,10.01
2023-03-25T16:16:40.843Z,10.05
2023-03-25T16:19:13.786Z,10.06
2023-03-25T16:21:42.115Z,10.07
2023-03-25T16:24:13.889Z,10.08
2023-03-25T16:26:44.548Z,10.06
2023-03-25T16:29:20.465Z,10.06
2023-03-25T16:31:57.723Z,10.05
2023-03-25T16:34:25.454Z,10.03
2023-03-25T16:36:55.051Z,9.99
2023-03-25T16:39:26.390Z,9.98
2023-03-25T16:42:06.525Z,9.94
2023-03-25T16:44:34.502Z,9.92
2023-03-25T16:47:03.341Z,9.88
2023-03-25T16:49:33.835Z,9.86
2023-03-25T16:52:03.453Z,9.84
2023-03-25T16:54:38.861Z,9.81
2023-03-25T16:57:16.584Z,9.80
2023-03-25T16:59:47.670Z,9.76
2023-03-25T17:02:29.116Z,9.73
2023-03-25T17:05:13.540Z,9.70
2023-03-25T17:07:43.484Z,9.68
2023-03-25T17:10:22.615Z,9.65
2023-03-25T17:12:58.032Z,9.54
2023-03-25T17:15:27.359Z,9.43
2023-03-25T17:18:01.016Z,9.35
2023-03-25T17:20:36.107Z,9.29
2023-03-25T17:23:09.303Z,9.29
2023-03-25T17:25:49.592Z,9.29
2023-03-25T17:28:35.409Z,9.27
2023-03-25T17:31:18.383Z,9.26
2023-03-25T17:33:51.100Z,9.21
2023-03-25T17:36:21.376Z,9.15
2023-03-25T17:38:52.186Z,9.06
2023-03-25T17:41:21.717Z,8.99
2023-03-25T17:43:52.318Z,8.95
2023-03-25T17:46:23.404Z,8.90
2023-03-25T17:49:02.306Z,8.85
2023-03-25T17:51:32.811Z,8.80
2023-03-25T17:53:59.971Z,8.75
2023-03-25T17:56:29.468Z,8.72
2023-03-25T17:59:00.123Z,8.73
2023-03-25T18:01:31.472Z,8.73
2023-03-25T18:03:59.339Z,8.72
2023-03-25T18:06:27.422Z,8.74
2023-03-25T18:08:55.050Z,8.77
2023-03-25T18:11:22.820Z,8.78
2023-03-25T18:14:10.401Z,8.80
2023-03-25T18:16:37.803Z,8.84
2023-03-25T18:19:05.287Z,8.89
2023-03-25T18:21:33.392Z,8.93
2023-03-25T18:24:00.644Z,8.96
2023-03-25T18:26:28.534Z,9.00
2023-03-25T18:28:56.043Z,9.03
2023-03-25T18:31:23.695Z,9.06
2023-03-25T18:33:51.561Z,9.09
2023-03-25T18:36:19.846Z,9.15
2023-03-25T18:38:47.825Z,9.19
2023-03-25T18:41:16.218Z,9.21
2023-03-25T18:43:43.835Z,9.22
2023-03-25T18:46:14.238Z,9.23
2023-03-25T18:48:41.632Z,9.22
2023-03-25T18:51:12.418Z,9.21
2023-03-25T18:53:39.643Z,9.21
2023-03-25T18:56:08.337Z,9.21
2023-03-25T18:58:36.768Z,9.22
2023-03-25T19:01:06.081Z,9.24
2023-03-25T19:03:39.147Z,9.24
2023-03-25T19:06:09.320Z,9.26
2023-03-25T19:08:37.062Z,9.26
2023-03-25T19:11:16.560Z,9.25
2023-03-25T19:13:47.951Z,9.21
2023-03-25T19:16:15.309Z,9.16
2023-03-25T19:18:42.374Z,9.12
2023-03-25T19:21:09.927Z,9.07
2023-03-25T19:23:37.197Z,9.01
2023-03-25T19:26:04.556Z,8.95
2023-03-25T19:28:31.885Z,8.91
2023-03-25T19:31:02.397Z,8.88
2023-03-25T19:33:31.400Z,8.87
2023-03-25T19:36:01.500Z,8.86
2023-03-25T19:38:29.766Z,8.86
2023-03-25T19:41:07.234Z,8.85
2023-03-25T19:43:34.525Z,8.84
2023-03-25T19:46:02.253Z,8.81
2023-03-25T19:48:30.753Z,8.79
2023-03-25T19:50:59.058Z,8.77
2023-03-25T19:53:27.334Z,8.74
2023-03-25T19:55:55.785Z,8.68
2023-03-25T19:58:23.869Z,8.61
2023-03-25T20:00:51.618Z,8.54
2023-03-25T20:03:22.316Z,8.48
2023-03-25T20:05:50.308Z,8.40
2023-03-25T20:08:17.513Z,8.30
2023-03-25T20:10:45.040Z,8.23
2023-03-25T20:13:12.788Z,8.14
2023-03-25T20:15:39.885Z,8.07
2023-03-25T20:18:07.493Z,7.99
2023-03-25T20:20:34.914Z,7.93
2023-03-25T20:23:02.075Z,7.87
2023-03-25T20:25:48.806Z,7.83
2023-03-25T20:28:18.472Z,7.77
2023-03-25T20:30:45.641Z,7.76
2023-03-25T20:33:13.132Z,7.74
2023-03-25T20:35:40.358Z,7.72
2023-03-25T20:38:08.574Z,7.72
2023-03-25T20:40:43.943Z,7.72
2023-03-25T20:43:14.569Z,7.70
2023-03-25T20:45:42.486Z,7.71
2023-03-25T20:48:09.917Z,7.71
2023-03-25T20:50:37.205Z,7.74
2023-03-25T20:53:25.944Z,7.76
2023-03-25T20:55:53.355Z,7.78
2023-03-25T20:58:20.650Z,7.80
2023-03-25T21:00:48.627Z,7.81
2023-03-25T21:03:16.822Z,7.82
2023-03-25T21:05:44.636Z,7.84
2023-03-25T21:08:12.227Z,7.87
2023-03-25T21:10:39.446Z,7.90
2023-03-25T21:13:06.994Z,7.93
2023-03-25T21:15:34.397Z,7.99
2023-03-25T21:18:01.590Z,8.01
2023-03-25T21:20:30.148Z,8.02
2023-03-25T21:22:59.244Z,8.02
2023-03-25T21:25:34.447Z,7.98
2023-03-25T21:28:02.443Z,7.94
2023-03-25T21:30:29.909Z,7.92
2023-03-25T21:32:57.083Z,7.89
2023-03-25T21:35:26.507Z,7.86
2023-03-25T21:37:53.591Z,7.86
2023-03-25T21:40:20.916Z,7.85
2023-03-25T21:42:49.059Z,7.85
2023-03-25T21:45:17.753Z,7.83
2023-03-25T21:47:47.515Z,7.82
2023-03-25T21:50:16.641Z,7.80
2023-03-25T21:52:46.717Z,7.80
2023-03-25T21:55:15.524Z,7.77
2023-03-25T21:57:45.321Z,7.75
2023-03-25T22:00:17.035Z,7.72
2023-03-25T22:02:46.139Z,7.71
2023-03-25T22:05:15.128Z,7.71
2023-03-25T22:07:42.719Z,7.72
2023-03-25T22:10:12.378Z,7.71
2023-03-25T22:12:39.770Z,7.70
2023-03-25T22:15:08.329Z,7.71
2023-03-25T22:17:35.932Z,7.71
2023-03-25T22:20:05.394Z,7.74
2023-03-25T22:22:32.596Z,7.75
2023-03-25T22:25:00.041Z,7.75
2023-03-25T22:27:27.385Z,7.77
2023-03-25T22:29:54.500Z,7.80
2023-03-25T22:32:21.832Z,7.83
2023-03-25T22:34:49.273Z,7.85
2023-03-25T22:37:16.634Z,7.86
2023-03-25T22:39:44.267Z,7.86
2023-03-25T22:42:11.392Z,7.86
2023-03-25T22:44:38.326Z,7.87
2023-03-25T22:47:05.635Z,7.87
2023-03-25T22:49:33.431Z,7.87
2023-03-25T22:52:01.367Z,7.85
2023-03-25T22:54:28.958Z,7.85
2023-03-25T22:56:56.092Z,7.84
2023-03-25T22:59:23.344Z,7.83
2023-03-25T23:01:50.657Z,7.83
2023-03-25T23:04:29.156Z,7.82
2023-03-25T23:07:07.218Z,7.84
2023-03-25T23:09:41.399Z,7.84
2023-03-25T23:12:11.921Z,7.86
2023-03-25T23:14:39.573Z,7.84
2023-03-25T23:17:06.680Z,7.82
2023-03-25T23:19:34.344Z,7.82
2023-03-25T23:22:01.688Z,7.83
2023-03-25T23:24:29.181Z,7.81
2023-03-25T23:26:57.024Z,7.81
2023-03-25T23:29:24.362Z,7.82
2023-03-25T23:31:51.621Z,7.82
2023-03-25T23:34:19.650Z,7.83
2023-03-25T23:36:47.912Z,7.84
2023-03-25T23:39:20.083Z,7.85
2023-03-25T23:41:47.188Z,7.86
2023-03-25T23:44:14.322Z,7.83
2023-03-25T23:46:41.981Z,7.84
2023-03-25T23:49:12.364Z,7.83
2023-03-25T23:51:41.566Z,7.77
2023-03-25T23:54:10.632Z,7.75
2023-03-25T23:56:38.864Z,7.72
2023-03-25T23:59:06.520Z,7.69
